createdAt,value
2018-06-14T00:00:56.695Z,0
2018-06-14T00:02:06.834Z,0
2018-06-14T00:03:16.991Z,0
2018-06-14T00:04:26.778Z,0
2018-06-14T00:05:36.962Z,0
2018-06-14T00:06:47.109Z,0
2018-06-14T00:07:57.245Z,0
2018-06-14T00:09:08.046Z,0
2018-06-14T00:10:18.220Z,0
2018-06-14T00:11:28.427Z,0
2018-06-14T00:12:38.692Z,0
2018-06-14T00:13:48.850Z,0
2018-06-14T00:14:59.060Z,0
2018-06-14T00:16:09.268Z,0
2018-06-14T00:17:19.463Z,0
2018-06-14T00:18:29.704Z,0
2018-06-14T00:19:39.856Z,0
2018-06-14T00:20:49.988Z,0
2018-06-14T00:22:00.125Z,0
2018-06-14T00:23:10.273Z,0
2018-06-14T00:24:20.137Z,0
2018-06-14T00:25:30.594Z,0
2018-06-14T00:26:40.864Z,0
2018-06-14T00:27:51.026Z,0
2018-06-14T00:29:01.205Z,0
2018-06-14T00:30:11.408Z,0
2018-06-14T00:31:21.623Z,0
2018-06-14T00:32:31.957Z,0
2018-06-14T00:33:42.181Z,0
2018-06-14T00:34:52.358Z,0
2018-06-14T00:36:02.609Z,0
2018-06-14T00:37:12.568Z,0
2018-06-14T00:38:22.704Z,0
2018-06-14T00:39:32.590Z,0
2018-06-14T00:40:42.727Z,0
2018-06-14T00:41:53.144Z,0
2018-06-14T00:43:03.377Z,0
2018-06-14T00:44:13.545Z,0
2018-06-14T00:45:23.773Z,0
2018-06-14T00:46:33.911Z,0
2018-06-14T00:47:43.798Z,0
2018-06-14T00:48:54.147Z,0
2018-06-14T00:50:04.295Z,0
2018-06-14T00:51:14.461Z,0
2018-06-14T00:52:24.722Z,0
2018-06-14T00:53:34.952Z,0
2018-06-14T00:54:45.157Z,0
2018-06-14T00:55:55.527Z,0
2018-06-14T00:57:05.651Z,0
2018-06-14T00:58:15.673Z,0
2018-06-14T00:59:25.812Z,0
2018-06-14T01:00:36.921Z,0
2018-06-14T01:01:46.791Z,0
2018-06-14T01:02:57.198Z,0
2018-06-14T01:04:07.390Z,0
2018-06-14T01:05:17.602Z,0
2018-06-14T01:06:27.740Z,0
2018-06-14T01:07:37.854Z,0
2018-06-14T01:08:47.981Z,0
2018-06-14T01:09:58.188Z,0
2018-06-14T01:11:08.320Z,0
2018-06-14T01:12:18.458Z,0
2018-06-14T01:13:28.732Z,0
2018-06-14T01:14:38.961Z,0
2018-06-14T01:15:49.116Z,0
2018-06-14T01:16:59.277Z,0
2018-06-14T01:18:09.482Z,0
2018-06-14T01:19:19.600Z,0
2018-06-14T01:20:29.802Z,0
2018-06-14T01:21:40.205Z,0
2018-06-14T01:22:50.541Z,0
2018-06-14T01:24:00.466Z,0
2018-06-14T01:25:10.620Z,0
2018-06-14T01:26:20.797Z,0
2018-06-14T01:27:30.999Z,0
2018-06-14T01:28:40.795Z,0
2018-06-14T01:29:50.948Z,0
2018-06-14T01:31:01.077Z,0
2018-06-14T01:32:11.278Z,0
2018-06-14T01:33:21.157Z,0
2018-06-14T01:34:31.285Z,0
2018-06-14T01:35:41.699Z,0
2018-06-14T01:36:51.835Z,0
2018-06-14T01:38:01.955Z,0
2018-06-14T01:39:12.075Z,0
2018-06-14T01:40:22.213Z,0
2018-06-14T01:41:32.044Z,0
2018-06-14T01:42:42.333Z,0
2018-06-14T01:43:52.526Z,0
2018-06-14T01:45:02.821Z,0
2018-06-14T01:46:12.994Z,0
2018-06-14T01:47:23.130Z,0
2018-06-14T01:48:33.350Z,0
2018-06-14T01:49:43.711Z,0
2018-06-14T01:50:53.842Z,0
2018-06-14T01:52:04.264Z,0
2018-06-14T01:53:14.461Z,0
2018-06-14T01:54:24.591Z,0
2018-06-14T01:55:34.490Z,0
2018-06-14T01:56:44.636Z,0
2018-06-14T01:57:54.523Z,0
2018-06-14T01:59:04.711Z,0
2018-06-14T02:00:14.840Z,0
2018-06-14T02:01:25.601Z,0
2018-06-14T02:02:35.745Z,0
2018-06-14T02:03:45.867Z,0
2018-06-14T02:04:56.043Z,0
2018-06-14T02:06:06.170Z,0
2018-06-14T02:07:16.299Z,0
2018-06-14T02:08:26.428Z,0
2018-06-14T02:09:36.546Z,4
2018-06-14T02:10:46.945Z,4
2018-06-14T02:11:57.109Z,0
2018-06-14T02:13:07.280Z,0
2018-06-14T02:14:17.419Z,0
2018-06-14T02:15:27.550Z,4
2018-06-14T02:16:37.800Z,0
2018-06-14T02:17:47.986Z,4
2018-06-14T02:18:58.283Z,4
2018-06-14T02:20:08.487Z,4
2018-06-14T02:21:18.708Z,4
2018-06-14T02:22:28.927Z,4
2018-06-14T02:23:39.154Z,8
2018-06-14T02:24:49.298Z,12
2018-06-14T02:25:59.503Z,8
2018-06-14T02:27:09.631Z,12
2018-06-14T02:28:19.770Z,12
2018-06-14T02:29:29.922Z,16
2018-06-14T02:30:40.053Z,20
2018-06-14T02:31:50.220Z,20
2018-06-14T02:33:00.098Z,20
2018-06-14T02:34:10.223Z,28
2018-06-14T02:35:20.413Z,32
2018-06-14T02:36:30.631Z,32
2018-06-14T02:37:40.765Z,36
2018-06-14T02:38:51.044Z,44
2018-06-14T02:40:01.253Z,52
2018-06-14T02:41:11.457Z,56
2018-06-14T02:42:21.652Z,64
2018-06-14T02:43:31.809Z,68
2018-06-14T02:44:41.701Z,80
2018-06-14T02:45:51.869Z,88
2018-06-14T02:47:02.019Z,92
2018-06-14T02:48:12.140Z,100
2018-06-14T02:49:22.301Z,112
2018-06-14T02:50:32.451Z,120
2018-06-14T02:51:42.340Z,128
2018-06-14T02:52:52.496Z,144
2018-06-14T02:54:02.472Z,156
2018-06-14T02:55:12.626Z,168
2018-06-14T02:56:22.801Z,180
2018-06-14T02:57:32.957Z,192
2018-06-14T02:58:42.959Z,204
2018-06-14T02:59:53.102Z,216
2018-06-14T03:01:03.252Z,232
2018-06-14T03:02:13.467Z,248
2018-06-14T03:03:23.679Z,268
2018-06-14T03:04:33.838Z,292
2018-06-14T03:05:44.052Z,308
2018-06-14T03:06:54.173Z,328
2018-06-14T03:08:04.296Z,344
2018-06-14T03:09:14.429Z,364
2018-06-14T03:10:24.622Z,376
2018-06-14T03:11:34.877Z,392
2018-06-14T03:12:44.770Z,404
2018-06-14T03:13:54.918Z,424
2018-06-14T03:15:05.077Z,440
2018-06-14T03:16:15.244Z,452
2018-06-14T03:17:25.587Z,480
2018-06-14T03:18:35.703Z,516
2018-06-14T03:19:45.875Z,556
2018-06-14T03:20:56.055Z,576
2018-06-14T03:22:06.252Z,592
2018-06-14T03:23:16.662Z,624
2018-06-14T03:24:26.819Z,664
2018-06-14T03:25:37.013Z,684
2018-06-14T03:26:47.219Z,716
2018-06-14T03:27:57.451Z,752
2018-06-14T03:29:07.706Z,768
2018-06-14T03:30:17.750Z,792
2018-06-14T03:31:27.930Z,816
2018-06-14T03:32:38.045Z,840
2018-06-14T03:33:48.039Z,872
2018-06-14T03:34:58.195Z,916
2018-06-14T03:36:08.341Z,956
2018-06-14T03:37:18.459Z,996
2018-06-14T03:38:28.607Z,1000
2018-06-14T03:39:38.744Z,1020
2018-06-14T03:40:49.442Z,1096
2018-06-14T03:41:59.608Z,1128
2018-06-14T03:43:09.594Z,1132
2018-06-14T03:44:19.718Z,1184
2018-06-14T03:45:29.863Z,1260
2018-06-14T03:46:39.801Z,1276
2018-06-14T03:47:49.942Z,1312
2018-06-14T03:49:00.092Z,1336
2018-06-14T03:50:10.244Z,1372
2018-06-14T03:51:20.350Z,1368
2018-06-14T03:52:30.542Z,1432
2018-06-14T03:53:40.467Z,1464
2018-06-14T03:54:50.630Z,1504
2018-06-14T03:56:00.930Z,1592
2018-06-14T03:57:11.055Z,1648
2018-06-14T03:58:20.966Z,1688
2018-06-14T03:59:31.182Z,1660
2018-06-14T04:00:41.309Z,1736
2018-06-14T04:01:51.486Z,1792
2018-06-14T04:03:01.653Z,1812
2018-06-14T04:04:12.085Z,1860
2018-06-14T04:05:22.438Z,1876
2018-06-14T04:06:32.584Z,1920
2018-06-14T04:07:42.731Z,1924
2018-06-14T04:08:52.888Z,1992
2018-06-14T04:10:03.326Z,2088
2018-06-14T04:11:13.702Z,2076
2018-06-14T04:12:23.624Z,2116
2018-06-14T04:13:33.779Z,2152
2018-06-14T04:14:43.915Z,2096
2018-06-14T04:15:54.083Z,2008
2018-06-14T04:17:04.243Z,1984
2018-06-14T04:18:14.493Z,2000
2018-06-14T04:19:24.671Z,2060
2018-06-14T04:20:35.236Z,2184
2018-06-14T04:21:45.443Z,2172
2018-06-14T04:22:55.453Z,2156
2018-06-14T04:24:05.680Z,2068
2018-06-14T04:25:15.822Z,2096
2018-06-14T04:26:26.043Z,2172
2018-06-14T04:27:36.327Z,2304
2018-06-14T04:28:46.525Z,2440
2018-06-14T04:29:56.908Z,2496
2018-06-14T04:31:07.154Z,2412
2018-06-14T04:32:17.312Z,2440
2018-06-14T04:33:27.481Z,2600
2018-06-14T04:34:37.690Z,2540
2018-06-14T04:35:47.892Z,2596
2018-06-14T04:36:58.224Z,2580
2018-06-14T04:38:08.409Z,2616
2018-06-14T04:39:17.989Z,2616
2018-06-14T04:40:28.324Z,2488
2018-06-14T04:41:38.266Z,2580
2018-06-14T04:42:48.602Z,2564
2018-06-14T04:43:58.773Z,2596
2018-06-14T04:45:08.890Z,2600
2018-06-14T04:46:19.017Z,2628
2018-06-14T04:47:29.265Z,2664
2018-06-14T04:48:39.400Z,2692
2018-06-14T04:49:49.657Z,2732
2018-06-14T04:50:59.552Z,2764
2018-06-14T04:52:09.696Z,2788
2018-06-14T04:53:19.875Z,2816
2018-06-14T04:54:30.985Z,2872
2018-06-14T04:55:41.250Z,2944
2018-06-14T04:56:51.478Z,3008
2018-06-14T04:58:01.673Z,3028
2018-06-14T04:59:11.860Z,3052
2018-06-14T05:00:22.022Z,3064
2018-06-14T05:01:32.288Z,3076
2018-06-14T05:02:42.516Z,3096
2018-06-14T05:03:52.798Z,3116
2018-06-14T05:05:03.036Z,3140
2018-06-14T05:06:13.280Z,3168
2018-06-14T05:07:23.447Z,3228
2018-06-14T05:08:33.617Z,3328
2018-06-14T05:09:43.609Z,3448
2018-06-14T05:10:53.793Z,3568
2018-06-14T05:12:03.970Z,3648
2018-06-14T05:13:14.133Z,3688
2018-06-14T05:14:24.302Z,3696
2018-06-14T05:15:34.676Z,3640
2018-06-14T05:16:44.818Z,3456
2018-06-14T05:17:54.967Z,3416
2018-06-14T05:19:04.992Z,3448
2018-06-14T05:20:15.378Z,3400
2018-06-14T05:21:25.607Z,3548
2018-06-14T05:22:35.770Z,3520
2018-06-14T05:23:45.981Z,3488
2018-06-14T05:24:56.145Z,3468
2018-06-14T05:26:06.450Z,3452
2018-06-14T05:27:16.581Z,3448
2018-06-14T05:28:26.799Z,3372
2018-06-14T05:29:37.099Z,3236
2018-06-14T05:30:47.411Z,3192
2018-06-14T05:31:57.567Z,3272
2018-06-14T05:33:07.756Z,3500
2018-06-14T05:34:17.938Z,3616
2018-06-14T05:35:28.213Z,3716
2018-06-14T05:36:38.422Z,3748
2018-06-14T05:37:48.818Z,3724
2018-06-14T05:38:58.973Z,3700
2018-06-14T05:40:08.849Z,3720
2018-06-14T05:41:19.053Z,3816
2018-06-14T05:42:29.397Z,3784
2018-06-14T05:43:39.878Z,3728
2018-06-14T05:44:50.076Z,3688
2018-06-14T05:46:00.215Z,3792
2018-06-14T05:47:10.386Z,3844
2018-06-14T05:48:20.627Z,3924
2018-06-14T05:49:30.819Z,3920
2018-06-14T05:50:40.977Z,3872
2018-06-14T05:51:51.174Z,3896
2018-06-14T05:53:01.335Z,3936
2018-06-14T05:54:11.495Z,3968
2018-06-14T05:55:21.855Z,3976
2018-06-14T05:56:32.142Z,3976
2018-06-14T05:57:42.325Z,3940
2018-06-14T05:58:52.602Z,3884
2018-06-14T06:00:02.877Z,3840
2018-06-14T06:01:13.021Z,3796
2018-06-14T06:02:23.137Z,3768
2018-06-14T06:03:33.277Z,3748
2018-06-14T06:04:43.449Z,3744
2018-06-14T06:05:53.723Z,3740
2018-06-14T06:07:03.850Z,3732
2018-06-14T06:08:13.995Z,3764
2018-06-14T06:09:24.263Z,3892
2018-06-14T06:10:34.454Z,3948
2018-06-14T06:11:44.831Z,4020
2018-06-14T06:12:54.986Z,4080
2018-06-14T06:14:05.234Z,4052
2018-06-14T06:15:15.383Z,4264
2018-06-14T06:16:25.556Z,4472
2018-06-14T06:17:35.792Z,4512
2018-06-14T06:18:45.942Z,4556
2018-06-14T06:19:56.534Z,4636
2018-06-14T06:21:06.692Z,4664
2018-06-14T06:22:16.855Z,4624
2018-06-14T06:23:27.374Z,4604
2018-06-14T06:24:37.589Z,4520
2018-06-14T06:25:47.741Z,4424
2018-06-14T06:26:57.873Z,4332
2018-06-14T06:28:07.791Z,4288
2018-06-14T06:29:18.059Z,4264
2018-06-14T06:30:28.270Z,4260
2018-06-14T06:31:38.420Z,4216
2018-06-14T06:32:48.574Z,4168
2018-06-14T06:33:58.854Z,4160
2018-06-14T06:35:09.155Z,4064
2018-06-14T06:36:19.345Z,4044
2018-06-14T06:37:29.153Z,4092
2018-06-14T06:38:39.405Z,4148
2018-06-14T06:39:49.296Z,4184
2018-06-14T06:40:59.422Z,4256
2018-06-14T06:42:09.610Z,4304
2018-06-14T06:43:19.787Z,4436
2018-06-14T06:44:29.660Z,4528
2018-06-14T06:45:39.788Z,4608
2018-06-14T06:46:50.539Z,4680
2018-06-14T06:48:00.708Z,4728
2018-06-14T06:49:10.853Z,4704
2018-06-14T06:50:21.043Z,4676
2018-06-14T06:51:31.217Z,4676
2018-06-14T06:52:41.464Z,4736
2018-06-14T06:53:51.624Z,4764
2018-06-14T06:55:01.888Z,4768
2018-06-14T06:56:12.084Z,4740
2018-06-14T06:57:22.448Z,4696
2018-06-14T06:58:32.621Z,4688
2018-06-14T06:59:42.796Z,4768
2018-06-14T07:00:52.769Z,4760
2018-06-14T07:02:02.897Z,4704
2018-06-14T07:03:13.031Z,4696
2018-06-14T07:04:23.208Z,4252
2018-06-14T07:05:33.394Z,4388
2018-06-14T07:06:43.646Z,4684
2018-06-14T07:07:53.838Z,5372
2018-06-14T07:09:04.127Z,5248
2018-06-14T07:10:14.310Z,5396
2018-06-14T07:11:24.612Z,5600
2018-06-14T07:12:34.892Z,5448
2018-06-14T07:13:45.069Z,5232
2018-06-14T07:14:55.208Z,5044
2018-06-14T07:16:05.441Z,5260
2018-06-14T07:17:15.680Z,5652
2018-06-14T07:18:25.918Z,6104
2018-06-14T07:19:35.799Z,6204
2018-06-14T07:20:45.960Z,6052
2018-06-14T07:21:56.640Z,6456
2018-06-14T07:23:06.968Z,6840
2018-06-14T07:24:17.129Z,7448
2018-06-14T07:25:27.282Z,7928
2018-06-14T07:26:37.419Z,8008
2018-06-14T07:27:47.799Z,7864
2018-06-14T07:28:57.985Z,7960
2018-06-14T07:30:08.140Z,7952
2018-06-14T07:31:18.317Z,7808
2018-06-14T07:32:28.588Z,7440
2018-06-14T07:33:38.727Z,7084
2018-06-14T07:34:48.890Z,6520
2018-06-14T07:35:59.163Z,6596
2018-06-14T07:37:09.339Z,6956
2018-06-14T07:38:19.232Z,7496
2018-06-14T07:39:29.404Z,7812
2018-06-14T07:40:39.653Z,8164
2018-06-14T07:41:49.849Z,8464
2018-06-14T07:43:00.279Z,8708
2018-06-14T07:44:10.694Z,8764
2018-06-14T07:45:20.942Z,8776
2018-06-14T07:46:31.145Z,8716
2018-06-14T07:47:41.366Z,8772
2018-06-14T07:48:51.504Z,8668
2018-06-14T07:50:01.642Z,8764
2018-06-14T07:51:11.789Z,9468
2018-06-14T07:52:21.958Z,10260
2018-06-14T07:53:32.122Z,11712
2018-06-14T07:54:42.385Z,14104
2018-06-14T07:55:52.587Z,14720
2018-06-14T07:57:02.749Z,13500
2018-06-14T07:58:12.907Z,12396
2018-06-14T07:59:23.174Z,10816
2018-06-14T08:00:32.974Z,9980
2018-06-14T08:01:43.136Z,9952
2018-06-14T08:02:53.339Z,9564
2018-06-14T08:04:03.477Z,8872
2018-06-14T08:05:13.645Z,8784
2018-06-14T08:06:23.815Z,8804
2018-06-14T08:07:33.766Z,9192
2018-06-14T08:08:43.975Z,9824
2018-06-14T08:09:54.133Z,8816
2018-06-14T08:11:04.366Z,8040
2018-06-14T08:12:14.592Z,9384
2018-06-14T08:13:24.836Z,9624
2018-06-14T08:14:35.015Z,9888
2018-06-14T08:15:45.349Z,10564
2018-06-14T08:16:55.529Z,11640
2018-06-14T08:18:05.767Z,13332
2018-06-14T08:19:15.990Z,15136
2018-06-14T08:20:26.207Z,16128
2018-06-14T08:21:36.410Z,15776
2018-06-14T08:22:46.574Z,15968
2018-06-14T08:23:56.798Z,16416
2018-06-14T08:25:07.069Z,17824
2018-06-14T08:26:17.256Z,19488
2018-06-14T08:27:27.484Z,17824
2018-06-14T08:28:37.759Z,16992
2018-06-14T08:29:47.984Z,15328
2018-06-14T08:30:58.392Z,14976
2018-06-14T08:32:08.592Z,14388
2018-06-14T08:33:18.727Z,13364
2018-06-14T08:34:28.889Z,12208
2018-06-14T08:35:39.064Z,11704
2018-06-14T08:36:49.290Z,11544
2018-06-14T08:37:59.630Z,11848
2018-06-14T08:39:09.805Z,12372
2018-06-14T08:40:20.008Z,12928
2018-06-14T08:41:29.917Z,25344
2018-06-14T08:42:40.291Z,37760
2018-06-14T08:43:50.568Z,43648
2018-06-14T08:45:00.849Z,54432
2018-06-14T08:46:11.036Z,54400
2018-06-14T08:47:21.258Z,54048
2018-06-14T08:48:31.431Z,50336
2018-06-14T08:49:41.704Z,23520
2018-06-14T08:50:51.961Z,13128
2018-06-14T08:52:02.221Z,12972
2018-06-14T08:53:12.432Z,13616
2018-06-14T08:54:22.634Z,14632
2018-06-14T08:55:32.844Z,15008
2018-06-14T08:56:43.032Z,15264
2018-06-14T08:57:52.941Z,15712
2018-06-14T08:59:03.091Z,19200
2018-06-14T09:00:13.242Z,19552
2018-06-14T09:01:23.408Z,21408
2018-06-14T09:02:33.568Z,30720
2018-06-14T09:03:43.722Z,56480
2018-06-14T09:04:53.858Z,67680
2018-06-14T09:06:04.099Z,59808
2018-06-14T09:07:14.356Z,59808
2018-06-14T09:08:24.515Z,73760
2018-06-14T09:09:34.657Z,72224
2018-06-14T09:10:44.822Z,64480
2018-06-14T09:11:55.016Z,69120
2018-06-14T09:13:05.161Z,62912
2018-06-14T09:14:15.453Z,60832
2018-06-14T09:15:25.739Z,70208
2018-06-14T09:16:35.955Z,81312
2018-06-14T09:17:46.109Z,73696
2018-06-14T09:18:56.011Z,73344
2018-06-14T09:20:06.175Z,87584
2018-06-14T09:21:16.319Z,83392
2018-06-14T09:22:26.499Z,73120
2018-06-14T09:23:36.708Z,64544
2018-06-14T09:24:46.540Z,69728
2018-06-14T09:25:56.786Z,77536
2018-06-14T09:27:06.968Z,80192
2018-06-14T09:28:17.212Z,77760
2018-06-14T09:29:27.406Z,72800
2018-06-14T09:30:37.591Z,74432
2018-06-14T09:31:47.842Z,83488
2018-06-14T09:32:58.088Z,87904
2018-06-14T09:34:08.289Z,82688
2018-06-14T09:35:18.521Z,72672
2018-06-14T09:36:28.703Z,72768
2018-06-14T09:37:38.945Z,84704
2018-06-14T09:38:48.876Z,91200
2018-06-14T09:39:59.012Z,84256
2018-06-14T09:41:09.009Z,75936
2018-06-14T09:42:19.230Z,79296
2018-06-14T09:43:29.416Z,78784
2018-06-14T09:44:39.653Z,68832
2018-06-14T09:45:49.559Z,70752
2018-06-14T09:46:59.729Z,81952
2018-06-14T09:48:09.931Z,85824
2018-06-14T09:49:20.194Z,78720
2018-06-14T09:50:30.503Z,76192
2018-06-14T09:51:40.412Z,75520
2018-06-14T09:52:50.603Z,66368
2018-06-14T09:54:00.771Z,64896
2018-06-14T09:55:10.918Z,75040
2018-06-14T09:56:21.090Z,78784
2018-06-14T09:57:31.264Z,81216
2018-06-14T09:58:41.496Z,81568
2018-06-14T09:59:51.904Z,84800
2018-06-14T10:01:02.307Z,88640
2018-06-14T10:02:12.509Z,87264
2018-06-14T10:03:22.746Z,78336
2018-06-14T10:04:32.961Z,72512
2018-06-14T10:05:43.134Z,89088
2018-06-14T10:06:53.415Z,98784
2018-06-14T10:08:03.706Z,79872
2018-06-14T10:09:14.011Z,71456
2018-06-14T10:10:24.187Z,92576
2018-06-14T10:11:34.416Z,99072
2018-06-14T10:12:44.575Z,97312
2018-06-14T10:13:54.404Z,96640
2018-06-14T10:15:04.567Z,98784
2018-06-14T10:16:15.908Z,89184
2018-06-14T10:17:26.079Z,84896
2018-06-14T10:18:37.516Z,92576
2018-06-14T10:19:47.873Z,101600
2018-06-14T10:20:58.102Z,100096
2018-06-14T10:22:08.909Z,104320
2018-06-14T10:23:19.091Z,104672
2018-06-14T10:24:29.353Z,105984
2018-06-14T10:25:39.552Z,96416
2018-06-14T10:26:49.792Z,87776
2018-06-14T10:28:00.602Z,87712
2018-06-14T10:29:10.555Z,88448
2018-06-14T10:30:20.780Z,93792
2018-06-14T10:31:30.661Z,104032
2018-06-14T10:32:40.836Z,106816
2018-06-14T10:33:51.053Z,110624
2018-06-14T10:35:00.961Z,122912
2018-06-14T10:36:11.432Z,128224
2018-06-14T10:37:21.653Z,118688
2018-06-14T10:38:31.927Z,94656
2018-06-14T10:39:42.140Z,84672
2018-06-14T10:40:52.362Z,95840
2018-06-14T10:42:02.545Z,100768
2018-06-14T10:43:12.760Z,96544
2018-06-14T10:44:22.610Z,94400
2018-06-14T10:45:32.793Z,106016
2018-06-14T10:46:42.838Z,115520
2018-06-14T10:47:52.724Z,110240
2018-06-14T10:49:03.879Z,102048
2018-06-14T10:50:15.098Z,100928
2018-06-14T10:51:25.360Z,103360
2018-06-14T10:52:35.780Z,105984
2018-06-14T10:53:45.982Z,108064
2018-06-14T10:54:56.157Z,116864
2018-06-14T10:56:06.321Z,110336
2018-06-14T10:57:16.535Z,82976
2018-06-14T10:58:26.421Z,79584
2018-06-14T10:59:36.600Z,99232
2018-06-14T11:00:46.825Z,113248
2018-06-14T11:01:57.013Z,97696
2018-06-14T11:03:07.189Z,107424
2018-06-14T11:04:17.374Z,104864
2018-06-14T11:05:27.828Z,84704
2018-06-14T11:06:38.206Z,84064
2018-06-14T11:07:48.420Z,85952
2018-06-14T11:08:58.605Z,94656
2018-06-14T11:10:08.821Z,91968
2018-06-14T11:11:19.332Z,102336
2018-06-14T11:12:29.517Z,103424
2018-06-14T11:13:39.718Z,86720
2018-06-14T11:14:49.903Z,82528
2018-06-14T11:16:00.186Z,92064
2018-06-14T11:17:10.400Z,102688
2018-06-14T11:18:20.609Z,90720
2018-06-14T11:19:30.776Z,74304
2018-06-14T11:20:40.951Z,85664
2018-06-14T11:21:50.912Z,118048
2018-06-14T11:23:01.235Z,131552
2018-06-14T11:24:11.622Z,121344
2018-06-14T11:25:21.824Z,102112
2018-06-14T11:26:32.226Z,100064
2018-06-14T11:27:42.441Z,108384
2018-06-14T11:28:52.653Z,105088
2018-06-14T11:30:03.401Z,97344
2018-06-14T11:31:13.820Z,91872
2018-06-14T11:32:24.013Z,97088
2018-06-14T11:33:34.235Z,102368
2018-06-14T11:34:44.463Z,94144
2018-06-14T11:35:54.731Z,94048
2018-06-14T11:37:04.974Z,110976
2018-06-14T11:38:15.268Z,116800
2018-06-14T11:39:25.449Z,99680
2018-06-14T11:40:35.645Z,86528
2018-06-14T11:41:45.959Z,94336
2018-06-14T11:42:56.163Z,96064
2018-06-14T11:44:06.349Z,80288
2018-06-14T11:45:16.552Z,71424
2018-06-14T11:46:26.763Z,89600
2018-06-14T11:47:36.998Z,108064
2018-06-14T11:48:47.430Z,108192
2018-06-14T11:49:57.578Z,97504
2018-06-14T11:51:07.617Z,93376
2018-06-14T11:52:17.879Z,98176
2018-06-14T11:53:28.174Z,99616
2018-06-14T11:54:38.344Z,88032
2018-06-14T11:55:48.539Z,81664
2018-06-14T11:56:58.748Z,88384
2018-06-14T11:58:08.615Z,98752
2018-06-14T11:59:18.825Z,100832
2018-06-14T12:00:29.004Z,93056
2018-06-14T12:01:39.231Z,86880
2018-06-14T12:02:49.772Z,89952
2018-06-14T12:04:00.093Z,89952
2018-06-14T12:05:10.034Z,92896
2018-06-14T12:06:20.244Z,95808
2018-06-14T12:07:30.480Z,96960
2018-06-14T12:08:40.667Z,90336
2018-06-14T12:09:50.893Z,86848
2018-06-14T12:11:01.119Z,85760
2018-06-14T12:12:11.033Z,102048
2018-06-14T12:13:21.293Z,103808
2018-06-14T12:14:31.562Z,88480
2018-06-14T12:15:41.841Z,75808
2018-06-14T12:16:51.785Z,76512
2018-06-14T12:18:02.027Z,84928
2018-06-14T12:19:12.228Z,94208
2018-06-14T12:20:22.446Z,95200
2018-06-14T12:21:32.840Z,97408
2018-06-14T12:22:43.164Z,93056
2018-06-14T12:23:53.363Z,85312
2018-06-14T12:25:03.589Z,81280
2018-06-14T12:26:13.803Z,84992
2018-06-14T12:27:23.994Z,84864
2018-06-14T12:28:34.230Z,80928
2018-06-14T12:29:44.573Z,75968
2018-06-14T12:30:54.737Z,86624
2018-06-14T12:32:04.993Z,95680
2018-06-14T12:33:15.210Z,91328
2018-06-14T12:34:25.381Z,77376
2018-06-14T12:35:35.213Z,72320
2018-06-14T12:36:45.460Z,79808
2018-06-14T12:37:55.400Z,95008
2018-06-14T12:39:05.773Z,87424
2018-06-14T12:40:15.990Z,80640
2018-06-14T12:41:26.199Z,80256
2018-06-14T12:42:36.422Z,82304
2018-06-14T12:43:46.625Z,77536
2018-06-14T12:44:56.830Z,75392
2018-06-14T12:46:07.103Z,78144
2018-06-14T12:47:17.323Z,88320
2018-06-14T12:48:27.594Z,87712
2018-06-14T12:49:37.798Z,88608
2018-06-14T12:50:47.987Z,75232
2018-06-14T12:51:58.230Z,71744
2018-06-14T12:53:08.440Z,79104
2018-06-14T12:54:18.820Z,88000
2018-06-14T12:55:29.045Z,89760
2018-06-14T12:56:39.274Z,77056
2018-06-14T12:57:49.450Z,78048
2018-06-14T12:58:59.477Z,86688
2018-06-14T13:00:09.640Z,88928
2018-06-14T13:01:19.938Z,80928
2018-06-14T13:02:30.138Z,76256
2018-06-14T13:03:40.402Z,84896
2018-06-14T13:04:50.604Z,92256
2018-06-14T13:06:00.777Z,89184
2018-06-14T13:07:10.982Z,85248
2018-06-14T13:08:21.261Z,86048
2018-06-14T13:09:31.523Z,92288
2018-06-14T13:10:41.742Z,87776
2018-06-14T13:11:51.956Z,74016
2018-06-14T13:13:02.148Z,73888
2018-06-14T13:14:12.363Z,86880
2018-06-14T13:15:22.592Z,100256
2018-06-14T13:16:32.811Z,93632
2018-06-14T13:17:42.731Z,80160
2018-06-14T13:18:52.942Z,78304
2018-06-14T13:20:03.142Z,78752
2018-06-14T13:21:13.747Z,77504
2018-06-14T13:22:23.970Z,84160
2018-06-14T13:23:34.159Z,84608
2018-06-14T13:24:44.363Z,85600
2018-06-14T13:25:54.653Z,82368
2018-06-14T13:27:04.897Z,81824
2018-06-14T13:28:15.100Z,76160
2018-06-14T13:29:25.298Z,69312
2018-06-14T13:30:35.586Z,65344
2018-06-14T13:31:45.778Z,72288
2018-06-14T13:32:56.026Z,72576
2018-06-14T13:34:06.258Z,70368
2018-06-14T13:35:16.492Z,70304
2018-06-14T13:36:26.682Z,71616
2018-06-14T13:37:36.922Z,66720
2018-06-14T13:38:47.092Z,62944
2018-06-14T13:39:57.016Z,69216
2018-06-14T13:41:07.199Z,75040
2018-06-14T13:42:17.427Z,67872
2018-06-14T13:43:27.624Z,52512
2018-06-14T13:44:37.894Z,43008
2018-06-14T13:45:48.366Z,54912
2018-06-14T13:46:58.624Z,71872
2018-06-14T13:48:08.835Z,78912
2018-06-14T13:49:19.424Z,62784
2018-06-14T13:50:29.756Z,43840
2018-06-14T13:51:40.040Z,42816
2018-06-14T13:52:50.218Z,56160
2018-06-14T13:54:00.170Z,67840
2018-06-14T13:55:10.603Z,69760
2018-06-14T13:56:20.905Z,66112
2018-06-14T13:57:31.152Z,60768
2018-06-14T13:58:41.419Z,57888
2018-06-14T13:59:51.618Z,61568
2018-06-14T14:01:02.374Z,67488
2018-06-14T14:02:13.041Z,68096
2018-06-14T14:03:23.393Z,61664
2018-06-14T14:04:33.712Z,58464
2018-06-14T14:05:43.899Z,57984
2018-06-14T14:06:54.094Z,58720
2018-06-14T14:08:04.262Z,64736
2018-06-14T14:09:14.466Z,72416
2018-06-14T14:10:24.678Z,70688
2018-06-14T14:11:34.861Z,62496
2018-06-14T14:12:45.043Z,59072
2018-06-14T14:13:54.735Z,58976
2018-06-14T14:15:05.139Z,54496
2018-06-14T14:16:15.337Z,55296
2018-06-14T14:17:25.560Z,60576
2018-06-14T14:18:35.525Z,58496
2018-06-14T14:19:45.444Z,55296
2018-06-14T14:20:55.612Z,60512
2018-06-14T14:22:05.842Z,63520
2018-06-14T14:23:16.038Z,57920
2018-06-14T14:24:26.221Z,62464
2018-06-14T14:25:36.230Z,73760
2018-06-14T14:26:46.423Z,68192
2018-06-14T14:27:57.199Z,54144
2018-06-14T14:29:08.616Z,53952
2018-06-14T14:30:18.835Z,59104
2018-06-14T14:31:29.276Z,47904
2018-06-14T14:32:39.684Z,41024
2018-06-14T14:33:49.937Z,44992
2018-06-14T14:35:00.214Z,51776
2018-06-14T14:36:10.617Z,46464
2018-06-14T14:37:20.843Z,45888
2018-06-14T14:38:31.054Z,47008
2018-06-14T14:39:40.993Z,55360
2018-06-14T14:40:51.263Z,61216
2018-06-14T14:42:01.512Z,55232
2018-06-14T14:43:11.545Z,51520
2018-06-14T14:44:21.685Z,56352
2018-06-14T14:45:31.893Z,64800
2018-06-14T14:46:42.086Z,60160
2018-06-14T14:47:52.498Z,56256
2018-06-14T14:49:02.749Z,55296
2018-06-14T14:50:13.175Z,51296
2018-06-14T14:51:23.109Z,45376
2018-06-14T14:52:33.284Z,45792
2018-06-14T14:53:43.502Z,50784
2018-06-14T14:54:53.904Z,44128
2018-06-14T14:56:04.225Z,44096
2018-06-14T14:57:14.414Z,47264
2018-06-14T14:58:24.604Z,40544
2018-06-14T14:59:34.897Z,39904
2018-06-14T15:00:45.185Z,38464
2018-06-14T15:01:55.383Z,21728
2018-06-14T15:03:05.594Z,12244
2018-06-14T15:04:15.582Z,10728
2018-06-14T15:05:25.866Z,10064
2018-06-14T15:06:36.226Z,9880
2018-06-14T15:07:46.576Z,9492
2018-06-14T15:08:56.799Z,9196
2018-06-14T15:10:07.003Z,9012
2018-06-14T15:11:17.204Z,8836
2018-06-14T15:12:27.444Z,8128
2018-06-14T15:13:37.613Z,8696
2018-06-14T15:14:47.813Z,8568
2018-06-14T15:15:58.026Z,8384
2018-06-14T15:17:08.209Z,8316
2018-06-14T15:18:18.455Z,8236
2018-06-14T15:19:28.693Z,8108
2018-06-14T15:20:38.892Z,8132
2018-06-14T15:21:49.106Z,8212
2018-06-14T15:22:59.346Z,8120
2018-06-14T15:24:09.609Z,8080
2018-06-14T15:25:19.835Z,8084
2018-06-14T15:26:30.068Z,8040
2018-06-14T15:27:40.310Z,8040
2018-06-14T15:28:50.543Z,7996
2018-06-14T15:30:00.526Z,7760
2018-06-14T15:31:11.144Z,7996
2018-06-14T15:32:21.337Z,7924
2018-06-14T15:33:31.557Z,7632
2018-06-14T15:34:41.804Z,7532
2018-06-14T15:35:51.968Z,7352
2018-06-14T15:37:02.169Z,7316